sensor_id;sensor_type;location;lat;lon;timestamp;pressure;altitude;pressure_sealevel;temperature
40199;BMP280;25906;43.536;26.068;2022-11-20T00:02:44;97999.28;;;16.46
40199;BMP280;25906;43.536;26.068;2022-11-20T00:05:32;97997.22;;;16.46
40199;BMP280;25906;43.536;26.068;2022-11-20T00:08:17;98003.22;;;16.43
40199;BMP280;25906;43.536;26.068;2022-11-20T00:11:07;97997.75;;;16.43
40199;BMP280;25906;43.536;26.068;2022-11-20T00:13:55;97985.06;;;16.15
40199;BMP280;25906;43.536;26.068;2022-11-20T00:16:42;97989.97;;;16.36
40199;BMP280;25906;43.536;26.068;2022-11-20T00:19:27;97985.97;;;16.56
40199;BMP280;25906;43.536;26.068;2022-11-20T00:22:12;97990.03;;;16.55
40199;BMP280;25906;43.536;26.068;2022-11-20T00:24:59;97991.97;;;16.52
40199;BMP280;25906;43.536;26.068;2022-11-20T00:27:44;97989.34;;;16.54
40199;BMP280;25906;43.536;26.068;2022-11-20T00:30:30;97978.44;;;16.74
40199;BMP280;25906;43.536;26.068;2022-11-20T00:33:15;97988.94;;;16.62
40199;BMP280;25906;43.536;26.068;2022-11-20T00:36:03;97978.31;;;16.70
40199;BMP280;25906;43.536;26.068;2022-11-20T00:38:59;97978.66;;;16.80
40199;BMP280;25906;43.536;26.068;2022-11-20T00:41:44;97979.91;;;16.77
40199;BMP280;25906;43.536;26.068;2022-11-20T00:44:30;97966.28;;;16.96
40199;BMP280;25906;43.536;26.068;2022-11-20T00:47:15;97976.78;;;17.03
40199;BMP280;25906;43.536;26.068;2022-11-20T00:50:00;97972.78;;;17.06
40199;BMP280;25906;43.536;26.068;2022-11-20T00:52:46;97976.16;;;17.05
40199;BMP280;25906;43.536;26.068;2022-11-20T00:55:32;97970.75;;;17.26
40199;BMP280;25906;43.536;26.068;2022-11-20T00:58:17;97977.91;;;16.96
40199;BMP280;25906;43.536;26.068;2022-11-20T01:01:16;97982.34;;;17.24
40199;BMP280;25906;43.536;26.068;2022-11-20T01:04:02;97977.56;;;17.06
40199;BMP280;25906;43.536;26.068;2022-11-20T01:06:47;97966.06;;;16.90
40199;BMP280;25906;43.536;26.068;2022-11-20T01:09:33;97957.34;;;16.95
40199;BMP280;25906;43.536;26.068;2022-11-20T01:12:18;97966.13;;;17.11
40199;BMP280;25906;43.536;26.068;2022-11-20T01:15:04;97960.28;;;17.21
40199;BMP280;25906;43.536;26.068;2022-11-20T01:17:50;97963.03;;;17.01
40199;BMP280;25906;43.536;26.068;2022-11-20T01:20:36;97951.81;;;16.93
40199;BMP280;25906;43.536;26.068;2022-11-20T01:23:22;97952.16;;;17.03
40199;BMP280;25906;43.536;26.068;2022-11-20T01:26:10;97954.91;;;17.23
40199;BMP280;25906;43.536;26.068;2022-11-20T01:28:56;97958.72;;;17.35
40199;BMP280;25906;43.536;26.068;2022-11-20T01:31:43;97945.56;;;17.51
40199;BMP280;25906;43.536;26.068;2022-11-20T01:34:29;97957.31;;;17.74
40199;BMP280;25906;43.536;26.068;2022-11-20T01:37:14;97963.16;;;17.86
40199;BMP280;25906;43.536;26.068;2022-11-20T01:39:59;97952.59;;;17.77
40199;BMP280;25906;43.536;26.068;2022-11-20T01:42:53;97946.69;;;17.63
40199;BMP280;25906;43.536;26.068;2022-11-20T01:46:11;97934.84;;;17.99
40199;BMP280;25906;43.536;26.068;2022-11-20T01:49:04;97932.47;;;17.47
40199;BMP280;25906;43.536;26.068;2022-11-20T01:51:57;97930.44;;;17.69
40199;BMP280;25906;43.536;26.068;2022-11-20T01:54:50;97918.19;;;17.70
40199;BMP280;25906;43.536;26.068;2022-11-20T01:57:37;97916.56;;;17.84
40199;BMP280;25906;43.536;26.068;2022-11-20T02:00:23;97921.75;;;18.19
40199;BMP280;25906;43.536;26.068;2022-11-20T02:03:12;97918.63;;;18.30
40199;BMP280;25906;43.536;26.068;2022-11-20T02:06:06;97929.69;;;18.34
40199;BMP280;25906;43.536;26.068;2022-11-20T02:08:53;97916.53;;;18.29
40199;BMP280;25906;43.536;26.068;2022-11-20T02:11:39;97917.34;;;18.56
40199;BMP280;25906;43.536;26.068;2022-11-20T02:14:26;97900.78;;;18.52
40199;BMP280;25906;43.536;26.068;2022-11-20T02:17:12;97911.25;;;18.85
40199;BMP280;25906;43.536;26.068;2022-11-20T02:19:57;97897.63;;;18.62
40199;BMP280;25906;43.536;26.068;2022-11-20T02:23:00;97912.84;;;18.92
40199;BMP280;25906;43.536;26.068;2022-11-20T02:25:48;97909.16;;;19.09
40199;BMP280;25906;43.536;26.068;2022-11-20T02:28:34;97905.66;;;19.06
40199;BMP280;25906;43.536;26.068;2022-11-20T02:31:20;97898.88;;;19.09
40199;BMP280;25906;43.536;26.068;2022-11-20T02:34:06;97893.06;;;19.25
40199;BMP280;25906;43.536;26.068;2022-11-20T02:36:52;97894.91;;;19.43
40199;BMP280;25906;43.536;26.068;2022-11-20T02:39:38;97892.56;;;19.30
40199;BMP280;25906;43.536;26.068;2022-11-20T02:42:24;97897.13;;;19.49
40199;BMP280;25906;43.536;26.068;2022-11-20T02:45:10;97887.72;;;19.58
40199;BMP280;25906;43.536;26.068;2022-11-20T02:47:55;97883.34;;;19.20
40199;BMP280;25906;43.536;26.068;2022-11-20T02:50:41;97875.16;;;19.49
40199;BMP280;25906;43.536;26.068;2022-11-20T02:53:27;97883.09;;;19.66
40199;BMP280;25906;43.536;26.068;2022-11-20T02:56:12;97865.47;;;19.46
40199;BMP280;25906;43.536;26.068;2022-11-20T02:58:58;97866.72;;;19.41
40199;BMP280;25906;43.536;26.068;2022-11-20T03:01:43;97864.22;;;19.24
40199;BMP280;25906;43.536;26.068;2022-11-20T03:04:29;97863.34;;;19.42
40199;BMP280;25906;43.536;26.068;2022-11-20T03:07:14;97861.44;;;19.49
40199;BMP280;25906;43.536;26.068;2022-11-20T03:10:00;97852.63;;;19.25
40199;BMP280;25906;43.536;26.068;2022-11-20T03:12:45;97856.56;;;19.18
40199;BMP280;25906;43.536;26.068;2022-11-20T03:15:31;97852.94;;;19.10
40199;BMP280;25906;43.536;26.068;2022-11-20T03:18:16;97855.16;;;19.17
40199;BMP280;25906;43.536;26.068;2022-11-20T03:21:02;97849.34;;;18.76
40199;BMP280;25906;43.536;26.068;2022-11-20T03:23:48;97865.00;;;18.99
40199;BMP280;25906;43.536;26.068;2022-11-20T03:26:34;97855.41;;;19.56
40199;BMP280;25906;43.536;26.068;2022-11-20T03:29:19;97859.50;;;19.26
40199;BMP280;25906;43.536;26.068;2022-11-20T03:32:05;97867.00;;;18.96
40199;BMP280;25906;43.536;26.068;2022-11-20T03:34:50;97858.81;;;18.98
40199;BMP280;25906;43.536;26.068;2022-11-20T03:37:36;97863.69;;;19.02
40199;BMP280;25906;43.536;26.068;2022-11-20T03:40:21;97866.41;;;19.00
40199;BMP280;25906;43.536;26.068;2022-11-20T03:43:09;97865.22;;;18.82
40199;BMP280;25906;43.536;26.068;2022-11-20T03:45:54;97860.91;;;18.48
40199;BMP280;25906;43.536;26.068;2022-11-20T03:48:40;97870.78;;;18.84
40199;BMP280;25906;43.536;26.068;2022-11-20T03:51:31;97870.19;;;18.87
40199;BMP280;25906;43.536;26.068;2022-11-20T03:54:16;97870.72;;;18.82
40199;BMP280;25906;43.536;26.068;2022-11-20T03:57:02;97866.66;;;19.10
40199;BMP280;25906;43.536;26.068;2022-11-20T03:59:48;97865.31;;;19.11
40199;BMP280;25906;43.536;26.068;2022-11-20T04:02:33;97872.34;;;18.90
40199;BMP280;25906;43.536;26.068;2022-11-20T04:05:18;97866.00;;;18.59
40199;BMP280;25906;43.536;26.068;2022-11-20T04:08:04;97868.03;;;18.58
40199;BMP280;25906;43.536;26.068;2022-11-20T04:10:50;97872.19;;;18.59
40199;BMP280;25906;43.536;26.068;2022-11-20T04:13:36;97874.44;;;18.67
40199;BMP280;25906;43.536;26.068;2022-11-20T04:16:23;97880.00;;;18.46
40199;BMP280;25906;43.536;26.068;2022-11-20T04:19:11;97886.53;;;18.83
40199;BMP280;25906;43.536;26.068;2022-11-20T04:21:57;97888.91;;;18.69
40199;BMP280;25906;43.536;26.068;2022-11-20T04:24:42;97880.44;;;18.36
40199;BMP280;25906;43.536;26.068;2022-11-20T04:27:30;97896.53;;;18.48
40199;BMP280;25906;43.536;26.068;2022-11-20T04:30:16;97893.03;;;18.45
40199;BMP280;25906;43.536;26.068;2022-11-20T04:33:01;97899.59;;;18.85
40199;BMP280;25906;43.536;26.068;2022-11-20T04:35:47;97902.38;;;18.87
40199;BMP280;25906;43.536;26.068;2022-11-20T04:38:33;97896.75;;;19.06
40199;BMP280;25906;43.536;26.068;2022-11-20T04:41:22;97892.13;;;18.87
40199;BMP280;25906;43.536;26.068;2022-11-20T04:44:08;97895.63;;;18.64
40199;BMP280;25906;43.536;26.068;2022-11-20T04:46:53;97896.31;;;18.65
40199;BMP280;25906;43.536;26.068;2022-11-20T04:49:39;97910.09;;;18.92
40199;BMP280;25906;43.536;26.068;2022-11-20T04:52:24;97898.81;;;18.80
40199;BMP280;25906;43.536;26.068;2022-11-20T04:55:11;97899.72;;;19.16
40199;BMP280;25906;43.536;26.068;2022-11-20T04:57:57;97890.97;;;19.50
40199;BMP280;25906;43.536;26.068;2022-11-20T05:00:44;97892.78;;;19.40
40199;BMP280;25906;43.536;26.068;2022-11-20T05:03:30;97896.38;;;19.46
40199;BMP280;25906;43.536;26.068;2022-11-20T05:06:16;97891.91;;;19.61
40199;BMP280;25906;43.536;26.068;2022-11-20T05:09:02;97904.03;;;19.81
40199;BMP280;25906;43.536;26.068;2022-11-20T05:11:47;97902.00;;;19.52
40199;BMP280;25906;43.536;26.068;2022-11-20T05:14:33;97908.13;;;19.49
40199;BMP280;25906;43.536;26.068;2022-11-20T05:17:19;97905.28;;;19.47
40199;BMP280;25906;43.536;26.068;2022-11-20T05:20:04;97906.06;;;19.49
40199;BMP280;25906;43.536;26.068;2022-11-20T05:22:50;97910.84;;;19.78
40199;BMP280;25906;43.536;26.068;2022-11-20T05:25:35;97907.03;;;19.93
40199;BMP280;25906;43.536;26.068;2022-11-20T05:28:21;97907.16;;;19.67
40199;BMP280;25906;43.536;26.068;2022-11-20T05:31:12;97905.03;;;19.95
40199;BMP280;25906;43.536;26.068;2022-11-20T05:33:58;97908.09;;;20.09
40199;BMP280;25906;43.536;26.068;2022-11-20T05:36:43;97913.16;;;19.89
40199;BMP280;25906;43.536;26.068;2022-11-20T05:39:29;97925.13;;;19.72
40199;BMP280;25906;43.536;26.068;2022-11-20T05:42:14;97918.72;;;19.91
40199;BMP280;25906;43.536;26.068;2022-11-20T05:45:18;97921.91;;;19.80
40199;BMP280;25906;43.536;26.068;2022-11-20T05:48:03;97933.28;;;19.98
40199;BMP280;25906;43.536;26.068;2022-11-20T05:50:49;97934.88;;;20.40
40199;BMP280;25906;43.536;26.068;2022-11-20T05:53:35;97933.09;;;20.21
40199;BMP280;25906;43.536;26.068;2022-11-20T05:56:21;97931.03;;;20.21
40199;BMP280;25906;43.536;26.068;2022-11-20T06:01:24;97946.75;;;17.86
40199;BMP280;25906;43.536;26.068;2022-11-20T06:04:09;97951.41;;;17.82
40199;BMP280;25906;43.536;26.068;2022-11-20T06:06:55;97949.06;;;17.96
40199;BMP280;25906;43.536;26.068;2022-11-20T06:09:40;97954.06;;;18.01
40199;BMP280;25906;43.536;26.068;2022-11-20T06:12:25;97954.72;;;18.23
40199;BMP280;25906;43.536;26.068;2022-11-20T06:15:11;97963.13;;;18.29
40199;BMP280;25906;43.536;26.068;2022-11-20T06:17:56;97969.88;;;18.26
40199;BMP280;25906;43.536;26.068;2022-11-20T06:20:41;97985.13;;;18.31
40199;BMP280;25906;43.536;26.068;2022-11-20T06:23:29;97970.59;;;18.26
40199;BMP280;25906;43.536;26.068;2022-11-20T06:26:22;97987.53;;;18.21
40199;BMP280;25906;43.536;26.068;2022-11-20T06:29:08;97997.94;;;18.03
40199;BMP280;25906;43.536;26.068;2022-11-20T06:31:53;98009.50;;;17.78
40199;BMP280;25906;43.536;26.068;2022-11-20T06:34:39;98019.03;;;17.37
40199;BMP280;25906;43.536;26.068;2022-11-20T06:37:24;98031.16;;;17.32
40199;BMP280;25906;43.536;26.068;2022-11-20T06:40:10;98047.47;;;15.72
40199;BMP280;25906;43.536;26.068;2022-11-20T06:42:55;98039.41;;;14.69
40199;BMP280;25906;43.536;26.068;2022-11-20T06:45:41;98047.13;;;14.30
40199;BMP280;25906;43.536;26.068;2022-11-20T06:48:27;98049.34;;;14.34
40199;BMP280;25906;43.536;26.068;2022-11-20T06:51:13;98062.16;;;14.31
40199;BMP280;25906;43.536;26.068;2022-11-20T06:53:58;98055.72;;;14.12
40199;BMP280;25906;43.536;26.068;2022-11-20T06:56:47;98077.81;;;13.77
40199;BMP280;25906;43.536;26.068;2022-11-20T06:59:33;98078.31;;;13.47
40199;BMP280;25906;43.536;26.068;2022-11-20T07:02:18;98095.03;;;13.17
40199;BMP280;25906;43.536;26.068;2022-11-20T07:05:04;98102.41;;;12.90
40199;BMP280;25906;43.536;26.068;2022-11-20T07:07:49;98109.34;;;13.18
40199;BMP280;25906;43.536;26.068;2022-11-20T07:10:35;98139.03;;;12.78
40199;BMP280;25906;43.536;26.068;2022-11-20T07:13:21;98130.41;;;12.81
40199;BMP280;25906;43.536;26.068;2022-11-20T07:16:07;98135.56;;;12.88
40199;BMP280;25906;43.536;26.068;2022-11-20T07:18:53;98157.53;;;12.92
40199;BMP280;25906;43.536;26.068;2022-11-20T07:21:38;98159.44;;;12.42
40199;BMP280;25906;43.536;26.068;2022-11-20T07:24:24;98165.72;;;11.99
40199;BMP280;25906;43.536;26.068;2022-11-20T07:27:09;98166.41;;;11.89
40199;BMP280;25906;43.536;26.068;2022-11-20T07:29:54;98179.47;;;11.69
40199;BMP280;25906;43.536;26.068;2022-11-20T07:32:40;98175.94;;;11.35
40199;BMP280;25906;43.536;26.068;2022-11-20T07:35:25;98182.81;;;10.94
40199;BMP280;25906;43.536;26.068;2022-11-20T07:38:11;98188.97;;;11.27
40199;BMP280;25906;43.536;26.068;2022-11-20T07:40:57;98181.56;;;11.27
40199;BMP280;25906;43.536;26.068;2022-11-20T07:43:42;98185.56;;;11.05
40199;BMP280;25906;43.536;26.068;2022-11-20T07:46:28;98194.22;;;11.13
40199;BMP280;25906;43.536;26.068;2022-11-20T07:49:13;98202.09;;;10.89
40199;BMP280;25906;43.536;26.068;2022-11-20T07:51:58;98207.56;;;11.21
40199;BMP280;25906;43.536;26.068;2022-11-20T07:54:44;98200.50;;;10.44
40199;BMP280;25906;43.536;26.068;2022-11-20T07:57:29;98198.78;;;10.39
40199;BMP280;25906;43.536;26.068;2022-11-20T08:00:15;98197.88;;;10.46
40199;BMP280;25906;43.536;26.068;2022-11-20T08:03:03;98207.50;;;10.38
40199;BMP280;25906;43.536;26.068;2022-11-20T08:05:49;98205.94;;;10.35
40199;BMP280;25906;43.536;26.068;2022-11-20T08:08:34;98202.19;;;10.49
40199;BMP280;25906;43.536;26.068;2022-11-20T08:11:20;98220.91;;;10.26
40199;BMP280;25906;43.536;26.068;2022-11-20T08:14:24;98209.69;;;10.20
40199;BMP280;25906;43.536;26.068;2022-11-20T08:17:09;98218.72;;;10.04
40199;BMP280;25906;43.536;26.068;2022-11-20T08:19:55;98214.19;;;9.88
40199;BMP280;25906;43.536;26.068;2022-11-20T08:22:40;98206.84;;;9.41
40199;BMP280;25906;43.536;26.068;2022-11-20T08:25:27;98199.13;;;9.66
40199;BMP280;25906;43.536;26.068;2022-11-20T08:28:12;98205.84;;;9.55
40199;BMP280;25906;43.536;26.068;2022-11-20T08:30:59;98200.59;;;9.29
40199;BMP280;25906;43.536;26.068;2022-11-20T08:33:45;98209.56;;;9.41
40199;BMP280;25906;43.536;26.068;2022-11-20T08:36:33;98220.78;;;9.56
40199;BMP280;25906;43.536;26.068;2022-11-20T08:39:19;98217.16;;;10.01
40199;BMP280;25906;43.536;26.068;2022-11-20T08:42:08;98208.88;;;10.08
40199;BMP280;25906;43.536;26.068;2022-11-20T08:44:53;98208.44;;;10.51
40199;BMP280;25906;43.536;26.068;2022-11-20T08:47:39;98215.44;;;10.96
40199;BMP280;25906;43.536;26.068;2022-11-20T08:50:24;98213.31;;;10.95
40199;BMP280;25906;43.536;26.068;2022-11-20T08:53:09;98205.63;;;10.70
40199;BMP280;25906;43.536;26.068;2022-11-20T08:55:56;98205.84;;;10.84
40199;BMP280;25906;43.536;26.068;2022-11-20T08:58:42;98197.56;;;10.82
40199;BMP280;25906;43.536;26.068;2022-11-20T09:01:28;98203.75;;;10.73
40199;BMP280;25906;43.536;26.068;2022-11-20T09:04:14;98185.19;;;10.99
40199;BMP280;25906;43.536;26.068;2022-11-20T09:07:00;98167.63;;;11.21
40199;BMP280;25906;43.536;26.068;2022-11-20T09:09:45;98161.56;;;11.11
40199;BMP280;25906;43.536;26.068;2022-11-20T09:12:31;98162.75;;;11.41
40199;BMP280;25906;43.536;26.068;2022-11-20T09:15:16;98169.25;;;11.47
40199;BMP280;25906;43.536;26.068;2022-11-20T09:18:02;98171.88;;;11.68
40199;BMP280;25906;43.536;26.068;2022-11-20T09:20:49;98162.38;;;11.78
40199;BMP280;25906;43.536;26.068;2022-11-20T09:23:35;98145.47;;;11.57
40199;BMP280;25906;43.536;26.068;2022-11-20T09:26:21;98141.47;;;11.46
40199;BMP280;25906;43.536;26.068;2022-11-20T09:29:06;98132.47;;;11.44
40199;BMP280;25906;43.536;26.068;2022-11-20T09:31:52;98124.50;;;11.57
40199;BMP280;25906;43.536;26.068;2022-11-20T09:34:37;98119.31;;;11.61
40199;BMP280;25906;43.536;26.068;2022-11-20T09:37:23;98128.69;;;11.38
40199;BMP280;25906;43.536;26.068;2022-11-20T09:40:28;98133.78;;;11.43
40199;BMP280;25906;43.536;26.068;2022-11-20T09:55:55;98095.97;;;11.68
40199;BMP280;25906;43.536;26.068;2022-11-20T09:58:45;98102.38;;;11.84
40199;BMP280;25906;43.536;26.068;2022-11-20T10:01:35;98095.41;;;11.46
40199;BMP280;25906;43.536;26.068;2022-11-20T10:04:22;98100.25;;;11.71
40199;BMP280;25906;43.536;26.068;2022-11-20T10:07:14;98107.81;;;12.06
40199;BMP280;25906;43.536;26.068;2022-11-20T10:10:01;98125.13;;;12.13
40199;BMP280;25906;43.536;26.068;2022-11-20T10:15:56;98116.44;;;12.50
40199;BMP280;25906;43.536;26.068;2022-11-20T10:30:27;98104.16;;;12.61
40199;BMP280;25906;43.536;26.068;2022-11-20T10:33:19;98104.91;;;12.86
40199;BMP280;25906;43.536;26.068;2022-11-20T10:36:41;98104.31;;;12.76
40199;BMP280;25906;43.536;26.068;2022-11-20T10:42:43;98102.41;;;12.90
40199;BMP280;25906;43.536;26.068;2022-11-20T10:45:49;98093.34;;;12.74
40199;BMP280;25906;43.536;26.068;2022-11-20T10:48:43;98105.38;;;13.07
40199;BMP280;25906;43.536;26.068;2022-11-20T10:54:50;98113.63;;;13.09
40199;BMP280;25906;43.536;26.068;2022-11-20T11:01:19;98092.44;;;13.19
40199;BMP280;25906;43.536;26.068;2022-11-20T11:07:39;98114.34;;;13.34
40199;BMP280;25906;43.536;26.068;2022-11-20T11:13:28;98102.22;;;13.24
40199;BMP280;25906;43.536;26.068;2022-11-20T11:16:25;98100.53;;;12.81
40199;BMP280;25906;43.536;26.068;2022-11-20T11:19:13;98102.03;;;12.59
40199;BMP280;25906;43.536;26.068;2022-11-20T11:21:59;98115.81;;;12.75
40199;BMP280;25906;43.536;26.068;2022-11-20T11:24:54;98102.81;;;13.23
40199;BMP280;25906;43.536;26.068;2022-11-20T11:27:49;98102.81;;;12.98
40199;BMP280;25906;43.536;26.068;2022-11-20T11:30:43;98100.66;;;13.08
40199;BMP280;25906;43.536;26.068;2022-11-20T11:33:31;98106.19;;;13.48
40199;BMP280;25906;43.536;26.068;2022-11-20T11:36:20;98111.56;;;13.21
40199;BMP280;25906;43.536;26.068;2022-11-20T11:39:13;98118.03;;;13.28
40199;BMP280;25906;43.536;26.068;2022-11-20T11:42:00;98119.13;;;13.23
40199;BMP280;25906;43.536;26.068;2022-11-20T11:44:49;98115.97;;;13.15
40199;BMP280;25906;43.536;26.068;2022-11-20T11:47:54;98122.16;;;13.04
40199;BMP280;25906;43.536;26.068;2022-11-20T11:50:48;98124.47;;;12.96
40199;BMP280;25906;43.536;26.068;2022-11-20T11:53:39;98120.66;;;13.01
40199;BMP280;25906;43.536;26.068;2022-11-20T11:56:27;98121.50;;;12.92
40199;BMP280;25906;43.536;26.068;2022-11-20T11:59:27;98120.25;;;12.82
40199;BMP280;25906;43.536;26.068;2022-11-20T12:02:36;98116.03;;;13.03
40199;BMP280;25906;43.536;26.068;2022-11-20T12:05:26;98116.56;;;12.88
40199;BMP280;25906;43.536;26.068;2022-11-20T12:11:37;98109.97;;;12.55
40199;BMP280;25906;43.536;26.068;2022-11-20T12:14:42;98122.13;;;12.43
40199;BMP280;25906;43.536;26.068;2022-11-20T12:17:28;98125.78;;;12.36
40199;BMP280;25906;43.536;26.068;2022-11-20T12:20:14;98126.50;;;12.37
40199;BMP280;25906;43.536;26.068;2022-11-20T12:23:10;98128.72;;;12.63
40199;BMP280;25906;43.536;26.068;2022-11-20T12:26:05;98115.16;;;12.51
40199;BMP280;25906;43.536;26.068;2022-11-20T12:51:20;98146.00;;;11.99
40199;BMP280;25906;43.536;26.068;2022-11-20T12:57:34;98158.72;;;12.19
40199;BMP280;25906;43.536;26.068;2022-11-20T13:00:24;98161.66;;;11.89
40199;BMP280;25906;43.536;26.068;2022-11-20T13:03:26;98156.97;;;12.12
40199;BMP280;25906;43.536;26.068;2022-11-20T13:06:19;98132.88;;;11.61
40199;BMP280;25906;43.536;26.068;2022-11-20T13:09:08;98144.59;;;11.98
40199;BMP280;25906;43.536;26.068;2022-11-20T13:12:10;98157.56;;;12.11
40199;BMP280;25906;43.536;26.068;2022-11-20T13:18:01;98122.81;;;11.41
40199;BMP280;25906;43.536;26.068;2022-11-20T13:20:47;98118.81;;;11.42
40199;BMP280;25906;43.536;26.068;2022-11-20T13:23:34;98127.81;;;11.67
40199;BMP280;25906;43.536;26.068;2022-11-20T13:26:22;98131.22;;;12.13
40199;BMP280;25906;43.536;26.068;2022-11-20T13:29:17;98101.50;;;11.58
40199;BMP280;25906;43.536;26.068;2022-11-20T13:35:00;98128.28;;;11.64
40199;BMP280;25906;43.536;26.068;2022-11-20T13:37:46;98141.75;;;11.96
40199;BMP280;25906;43.536;26.068;2022-11-20T13:40:32;98125.81;;;11.79
40199;BMP280;25906;43.536;26.068;2022-11-20T13:43:35;98107.00;;;11.38
40199;BMP280;25906;43.536;26.068;2022-11-20T13:46:21;98122.38;;;11.56
40199;BMP280;25906;43.536;26.068;2022-11-20T13:49:31;98128.75;;;11.83
40199;BMP280;25906;43.536;26.068;2022-11-20T13:55:37;98098.34;;;10.86
40199;BMP280;25906;43.536;26.068;2022-11-20T14:01:16;98103.03;;;11.39
40199;BMP280;25906;43.536;26.068;2022-11-20T14:04:07;98101.44;;;11.36
40199;BMP280;25906;43.536;26.068;2022-11-20T14:06:54;98089.09;;;11.44
40199;BMP280;25906;43.536;26.068;2022-11-20T14:09:57;98100.56;;;11.65
40199;BMP280;25906;43.536;26.068;2022-11-20T14:12:43;98097.78;;;11.63
40199;BMP280;25906;43.536;26.068;2022-11-20T14:15:33;98085.84;;;11.45
40199;BMP280;25906;43.536;26.068;2022-11-20T14:18:20;98095.16;;;11.54
40199;BMP280;25906;43.536;26.068;2022-11-20T14:21:09;98088.44;;;11.66
40199;BMP280;25906;43.536;26.068;2022-11-20T14:24:21;98072.72;;;11.53
40199;BMP280;25906;43.536;26.068;2022-11-20T14:27:13;98071.00;;;11.81
40199;BMP280;25906;43.536;26.068;2022-11-20T14:30:00;98085.25;;;11.81
40199;BMP280;25906;43.536;26.068;2022-11-20T14:32:47;98076.97;;;12.25
40199;BMP280;25906;43.536;26.068;2022-11-20T14:35:43;98074.03;;;12.21
40199;BMP280;25906;43.536;26.068;2022-11-20T14:38:31;98072.19;;;12.00
40199;BMP280;25906;43.536;26.068;2022-11-20T14:41:22;98084.41;;;12.01
40199;BMP280;25906;43.536;26.068;2022-11-20T14:44:09;98112.00;;;12.43
40199;BMP280;25906;43.536;26.068;2022-11-20T14:46:55;98152.34;;;12.49
40199;BMP280;25906;43.536;26.068;2022-11-20T14:49:22;98200.50;;;12.26
40199;BMP280;25906;43.536;26.068;2022-11-20T14:52:18;98232.50;;;12.27
40199;BMP280;25906;43.536;26.068;2022-11-20T14:55:03;98209.59;;;12.19
40199;BMP280;25906;43.536;26.068;2022-11-20T14:57:55;98191.63;;;11.91
40199;BMP280;25906;43.536;26.068;2022-11-20T15:00:41;98199.75;;;11.80
40199;BMP280;25906;43.536;26.068;2022-11-20T15:03:37;98217.34;;;12.01
40199;BMP280;25906;43.536;26.068;2022-11-20T15:06:26;98217.34;;;11.90
40199;BMP280;25906;43.536;26.068;2022-11-20T15:09:14;98179.47;;;11.81
40199;BMP280;25906;43.536;26.068;2022-11-20T15:12:01;98173.34;;;11.80
40199;BMP280;25906;43.536;26.068;2022-11-20T15:14:48;98181.16;;;12.08
40199;BMP280;25906;43.536;26.068;2022-11-20T15:17:37;98182.53;;;12.55
40199;BMP280;25906;43.536;26.068;2022-11-20T15:20:26;98178.78;;;12.48
40199;BMP280;25906;43.536;26.068;2022-11-20T15:23:15;98175.59;;;12.52
40199;BMP280;25906;43.536;26.068;2022-11-20T15:26:06;98178.19;;;12.61
40199;BMP280;25906;43.536;26.068;2022-11-20T15:28:52;98188.09;;;12.45
40199;BMP280;25906;43.536;26.068;2022-11-20T15:31:38;98185.50;;;12.36
40199;BMP280;25906;43.536;26.068;2022-11-20T15:34:27;98184.44;;;12.52
40199;BMP280;25906;43.536;26.068;2022-11-20T15:37:12;98183.28;;;12.10
40199;BMP280;25906;43.536;26.068;2022-11-20T15:39:58;98181.06;;;12.06
40199;BMP280;25906;43.536;26.068;2022-11-20T15:42:43;98177.13;;;12.09
40199;BMP280;25906;43.536;26.068;2022-11-20T15:45:51;98182.56;;;11.87
40199;BMP280;25906;43.536;26.068;2022-11-20T15:48:40;98186.22;;;12.02
40199;BMP280;25906;43.536;26.068;2022-11-20T15:54:20;98203.94;;;12.15
40199;BMP280;25906;43.536;26.068;2022-11-20T15:57:05;98215.63;;;12.29
40199;BMP280;25906;43.536;26.068;2022-11-20T15:59:51;98219.63;;;12.62
40199;BMP280;25906;43.536;26.068;2022-11-20T16:02:36;98211.28;;;12.35
40199;BMP280;25906;43.536;26.068;2022-11-20T16:05:21;98202.50;;;12.48
40199;BMP280;25906;43.536;26.068;2022-11-20T16:08:08;98192.72;;;12.54
40199;BMP280;25906;43.536;26.068;2022-11-20T16:10:53;98195.78;;;12.38
40199;BMP280;25906;43.536;26.068;2022-11-20T16:13:39;98189.31;;;12.20
40199;BMP280;25906;43.536;26.068;2022-11-20T16:16:43;98193.41;;;12.09
40199;BMP280;25906;43.536;26.068;2022-11-20T16:19:28;98179.00;;;11.84
40199;BMP280;25906;43.536;26.068;2022-11-20T16:22:14;98192.25;;;12.12
40199;BMP280;25906;43.536;26.068;2022-11-20T16:24:59;98181.50;;;12.37
40199;BMP280;25906;43.536;26.068;2022-11-20T16:27:44;98184.22;;;12.48
40199;BMP280;25906;43.536;26.068;2022-11-20T16:30:31;98177.34;;;12.47
40199;BMP280;25906;43.536;26.068;2022-11-20T16:33:17;98173.00;;;12.20
40199;BMP280;25906;43.536;26.068;2022-11-20T16:36:23;98174.06;;;12.38
40199;BMP280;25906;43.536;26.068;2022-11-20T16:39:09;98166.78;;;12.40
40199;BMP280;25906;43.536;26.068;2022-11-20T16:41:54;98156.25;;;12.35
40199;BMP280;25906;43.536;26.068;2022-11-20T16:44:40;98156.88;;;12.10
40199;BMP280;25906;43.536;26.068;2022-11-20T16:47:25;98144.91;;;12.38
40199;BMP280;25906;43.536;26.068;2022-11-20T16:50:10;98132.28;;;12.42
40199;BMP280;25906;43.536;26.068;2022-11-20T16:52:56;98120.53;;;12.27
40199;BMP280;25906;43.536;26.068;2022-11-20T16:55:41;98108.00;;;12.22
40199;BMP280;25906;43.536;26.068;2022-11-20T16:58:26;98124.97;;;12.34
40199;BMP280;25906;43.536;26.068;2022-11-20T17:01:15;98112.22;;;12.36
40199;BMP280;25906;43.536;26.068;2022-11-20T17:04:02;98126.59;;;12.61
40199;BMP280;25906;43.536;26.068;2022-11-20T17:06:48;98135.22;;;12.58
40199;BMP280;25906;43.536;26.068;2022-11-20T17:09:34;98134.69;;;12.73
40199;BMP280;25906;43.536;26.068;2022-11-20T17:12:19;98148.75;;;12.81
40199;BMP280;25906;43.536;26.068;2022-11-20T17:15:05;98160.34;;;12.58
40199;BMP280;25906;43.536;26.068;2022-11-20T17:17:50;98167.66;;;12.67
40199;BMP280;25906;43.536;26.068;2022-11-20T17:20:36;98154.56;;;12.64
40199;BMP280;25906;43.536;26.068;2022-11-20T17:23:21;98149.34;;;12.68
40199;BMP280;25906;43.536;26.068;2022-11-20T17:26:15;98138.84;;;12.74